createdAt,value
2017-05-24T00:01:08.690Z,17.66
2017-05-24T00:02:22.253Z,17.57
2017-05-24T00:03:35.864Z,17.56
2017-05-24T00:04:49.503Z,17.5
2017-05-24T00:06:03.076Z,17.56
2017-05-24T00:07:17.107Z,17.59
2017-05-24T00:08:31.361Z,17.53
2017-05-24T00:09:45.328Z,17.49
2017-05-24T00:11:00.482Z,17.56
2017-05-24T00:12:14.025Z,17.5
2017-05-24T00:13:27.998Z,17.39
2017-05-24T00:14:41.714Z,17.44
2017-05-24T00:15:55.601Z,17.46
2017-05-24T00:17:09.140Z,17.47
2017-05-24T00:18:23.049Z,17.42
2017-05-24T00:19:37.264Z,17.42
2017-05-24T00:20:50.958Z,17.47
2017-05-24T00:22:04.856Z,17.41
2017-05-24T00:23:18.717Z,17.41
2017-05-24T00:24:32.311Z,17.39
2017-05-24T00:25:46.161Z,17.42
2017-05-24T00:26:59.747Z,17.28
2017-05-24T00:28:13.290Z,17.37
2017-05-24T00:29:26.867Z,17.34
2017-05-24T00:30:40.428Z,17.41
2017-05-24T00:31:54.331Z,17.28
2017-05-24T00:33:07.906Z,17.42
2017-05-24T00:34:21.839Z,17.27
2017-05-24T00:35:36.101Z,17.28
2017-05-24T00:36:49.766Z,17.31
2017-05-24T00:38:03.638Z,17.24
2017-05-24T00:39:17.490Z,17.24
2017-05-24T00:40:31.144Z,17.32
2017-05-24T00:41:44.715Z,17.23
2017-05-24T00:42:58.568Z,17.19
2017-05-24T00:44:12.430Z,17.24
2017-05-24T00:45:26.022Z,17.17
2017-05-24T00:46:39.939Z,17.12
2017-05-24T00:47:53.489Z,17.17
2017-05-24T00:49:07.217Z,17.19
2017-05-24T00:50:21.088Z,17.23
2017-05-24T00:51:34.770Z,17.23
2017-05-24T00:52:48.328Z,17.17
2017-05-24T00:54:01.883Z,17.22
2017-05-24T00:55:15.800Z,17.19
2017-05-24T00:56:29.925Z,17.16
2017-05-24T00:57:43.486Z,17.22
2017-05-24T00:58:57.061Z,17.22
2017-05-24T01:00:10.613Z,17.2
2017-05-24T01:01:24.236Z,17.13
2017-05-24T01:02:38.608Z,17.14
2017-05-24T01:03:52.173Z,17.07
2017-05-24T01:05:06.108Z,17.1
2017-05-24T01:06:19.666Z,17.07
2017-05-24T01:07:33.972Z,17.1
2017-05-24T01:08:47.864Z,17.09
2017-05-24T01:10:01.907Z,17.07
2017-05-24T01:11:15.460Z,17.05
2017-05-24T01:12:29.461Z,17.1
2017-05-24T01:13:43.972Z,17.09
2017-05-24T01:14:57.874Z,17.1
2017-05-24T01:16:11.472Z,17.16
2017-05-24T01:17:25.086Z,17.05
2017-05-24T01:18:38.638Z,17.05
2017-05-24T01:19:52.231Z,17.05
2017-05-24T01:21:06.099Z,17.04
2017-05-24T01:22:20.302Z,17.04
2017-05-24T01:23:33.907Z,16.99
2017-05-24T01:24:47.523Z,16.99
2017-05-24T01:26:01.155Z,17.07
2017-05-24T01:27:15.089Z,17.09
2017-05-24T01:28:28.756Z,17.02
2017-05-24T01:29:42.355Z,17.01
2017-05-24T01:30:55.936Z,16.95
2017-05-24T01:32:09.720Z,17.02
2017-05-24T01:33:24.007Z,17.01
2017-05-24T01:34:37.560Z,17.01
2017-05-24T01:35:51.103Z,17.07
2017-05-24T01:37:04.674Z,17.04
2017-05-24T01:38:18.223Z,17.01
2017-05-24T01:39:32.687Z,17.04
2017-05-24T01:40:46.235Z,17.04
2017-05-24T01:41:59.751Z,16.97
2017-05-24T01:43:13.306Z,17.01
2017-05-24T01:44:26.888Z,16.97
2017-05-24T01:45:40.758Z,17.02
2017-05-24T01:46:54.489Z,17.02
2017-05-24T01:48:08.042Z,17.09
2017-05-24T01:49:21.648Z,17.04
2017-05-24T01:50:35.205Z,16.97
2017-05-24T01:51:49.068Z,16.98
2017-05-24T01:53:02.601Z,17.09
2017-05-24T01:54:16.161Z,16.97
2017-05-24T01:55:29.842Z,17.02
2017-05-24T01:56:43.407Z,17.01
2017-05-24T01:57:57.307Z,16.89
2017-05-24T01:59:10.901Z,16.94
2017-05-24T02:00:24.517Z,16.97
2017-05-24T02:01:38.376Z,16.95
2017-05-24T02:02:52.677Z,16.99
2017-05-24T02:04:06.735Z,16.87
2017-05-24T02:05:20.343Z,16.92
2017-05-24T02:06:34.223Z,16.83
2017-05-24T02:07:47.778Z,16.86
2017-05-24T02:09:01.332Z,16.91
2017-05-24T02:10:15.309Z,16.89
2017-05-24T02:11:29.253Z,16.89
2017-05-24T02:12:42.821Z,16.87
2017-05-24T02:13:56.425Z,16.82
2017-05-24T02:15:09.982Z,16.84
2017-05-24T02:16:24.202Z,16.86
2017-05-24T02:17:38.176Z,16.8
2017-05-24T02:18:51.773Z,16.69
2017-05-24T02:20:05.334Z,16.68
2017-05-24T02:21:19.173Z,16.77
2017-05-24T02:22:33.006Z,16.72
2017-05-24T02:23:46.602Z,16.73
2017-05-24T02:25:00.351Z,16.72
2017-05-24T02:26:14.187Z,16.72
2017-05-24T02:27:28.124Z,16.68
2017-05-24T02:28:42.035Z,16.68
2017-05-24T02:29:55.597Z,16.72
2017-05-24T02:31:09.333Z,16.72
2017-05-24T02:32:22.910Z,16.68
2017-05-24T02:33:36.447Z,16.66
2017-05-24T02:34:50.329Z,16.73
2017-05-24T02:36:03.883Z,16.69
2017-05-24T02:37:17.474Z,16.66
2017-05-24T02:38:31.683Z,16.54
2017-05-24T02:39:45.337Z,16.58
2017-05-24T02:40:59.925Z,16.51
2017-05-24T02:42:13.971Z,16.54
2017-05-24T02:43:27.571Z,16.49
2017-05-24T02:44:41.437Z,16.43
2017-05-24T02:45:55.173Z,16.47
2017-05-24T02:47:09.022Z,16.46
2017-05-24T02:48:23.311Z,16.43
2017-05-24T02:49:36.861Z,16.39
2017-05-24T02:50:50.720Z,16.43
2017-05-24T02:52:04.949Z,16.41
2017-05-24T02:53:19.249Z,16.36
2017-05-24T02:54:33.043Z,16.34
2017-05-24T02:55:46.569Z,16.32
2017-05-24T02:57:00.471Z,16.29
2017-05-24T02:58:14.462Z,16.25
2017-05-24T02:59:28.528Z,16.32
2017-05-24T03:00:42.435Z,16.36
2017-05-24T03:01:56.273Z,16.34
2017-05-24T03:03:09.962Z,16.32
2017-05-24T03:04:23.539Z,16.24
2017-05-24T03:05:37.418Z,16.17
2017-05-24T03:06:51.157Z,16.16
2017-05-24T03:08:04.682Z,16.18
2017-05-24T03:09:18.290Z,16.12
2017-05-24T03:10:31.826Z,16.24
2017-05-24T03:11:45.789Z,16.18
2017-05-24T03:12:59.342Z,16.16
2017-05-24T03:14:13.210Z,16.06
2017-05-24T03:15:27.129Z,16.16
2017-05-24T03:16:40.764Z,16.08
2017-05-24T03:17:55.028Z,16.08
2017-05-24T03:19:08.614Z,16.09
2017-05-24T03:20:22.553Z,16.12
2017-05-24T03:21:36.285Z,16.12
2017-05-24T03:22:49.990Z,16.12
2017-05-24T03:24:04.258Z,16.06
2017-05-24T03:25:17.851Z,16.05
2017-05-24T03:26:31.409Z,16.09
2017-05-24T03:27:45.035Z,16.05
2017-05-24T03:28:58.768Z,16.1
2017-05-24T03:30:12.721Z,16.05
2017-05-24T03:31:26.334Z,16.03
2017-05-24T03:32:39.875Z,16.02
2017-05-24T03:33:53.536Z,15.92
2017-05-24T03:35:07.204Z,15.98
2017-05-24T03:36:21.214Z,15.99
2017-05-24T03:37:35.081Z,15.99
2017-05-24T03:38:48.796Z,15.99
2017-05-24T03:40:02.533Z,15.96
2017-05-24T03:41:16.258Z,15.92
2017-05-24T03:42:30.161Z,15.88
2017-05-24T03:43:44.413Z,15.84
2017-05-24T03:44:58.554Z,15.78
2017-05-24T03:46:12.176Z,15.76
2017-05-24T03:47:25.803Z,15.7
2017-05-24T03:48:40.059Z,15.67
2017-05-24T03:49:53.732Z,15.7
2017-05-24T03:51:07.311Z,15.72
2017-05-24T03:52:20.979Z,15.75
2017-05-24T03:53:34.567Z,15.59
2017-05-24T03:54:49.358Z,15.73
2017-05-24T03:56:02.997Z,15.76
2017-05-24T03:57:16.598Z,15.7
2017-05-24T03:58:30.247Z,15.54
2017-05-24T03:59:44.208Z,15.55
2017-05-24T04:00:58.183Z,15.52
2017-05-24T04:02:11.857Z,15.52
2017-05-24T04:03:25.435Z,15.55
2017-05-24T04:04:39.336Z,15.5
2017-05-24T04:05:52.952Z,15.47
2017-05-24T04:07:06.908Z,15.45
2017-05-24T04:08:20.505Z,15.3
2017-05-24T04:09:34.187Z,15.29
2017-05-24T04:10:48.146Z,15.32
2017-05-24T04:12:02.044Z,15.35
2017-05-24T04:13:15.991Z,15.3
2017-05-24T04:14:30.267Z,15.36
2017-05-24T04:15:43.924Z,15.35
2017-05-24T04:16:57.856Z,15.73
2017-05-24T04:18:11.853Z,16.55
2017-05-24T04:19:26.421Z,16.4
2017-05-24T04:20:40.036Z,17.88
2017-05-24T04:21:53.869Z,19.96
2017-05-24T04:23:12.958Z,20.74
2017-05-24T04:24:30.911Z,21.85
2017-05-24T04:25:45.368Z,23.26
2017-05-24T04:27:00.115Z,24.25
2017-05-24T04:28:30.566Z,25.14
2017-05-24T04:29:47.384Z,25.76
2017-05-24T04:31:04.000Z,26.18
2017-05-24T04:32:21.990Z,26.59
2017-05-24T04:33:37.106Z,27.11
2017-05-24T04:34:52.903Z,26.74
2017-05-24T04:36:07.974Z,25.93
2017-05-24T04:37:25.037Z,23.25
2017-05-24T04:38:42.656Z,21.6
2017-05-24T04:39:58.545Z,20.34
2017-05-24T04:41:13.357Z,19.84
2017-05-24T04:42:27.619Z,19.27
2017-05-24T04:43:41.659Z,19.35
2017-05-24T04:44:55.546Z,21.35
2017-05-24T04:46:09.470Z,22.77
2017-05-24T04:47:23.067Z,24.56
2017-05-24T04:48:36.746Z,26.11
2017-05-24T04:49:51.383Z,27.44
2017-05-24T04:51:05.395Z,28.23
2017-05-24T04:52:19.010Z,28.96
2017-05-24T04:53:32.578Z,29.15
2017-05-24T04:54:46.205Z,29.49
2017-05-24T04:56:00.516Z,29.94
2017-05-24T04:57:14.436Z,30.54
2017-05-24T04:58:28.354Z,30.85
2017-05-24T04:59:42.353Z,31.04
2017-05-24T05:00:56.277Z,31.26
2017-05-24T05:02:10.171Z,31.47
2017-05-24T05:03:23.858Z,31.73
2017-05-24T05:04:37.512Z,31.79
2017-05-24T05:05:51.164Z,31.51
2017-05-24T05:07:05.098Z,30.74
2017-05-24T05:08:19.094Z,31.02
2017-05-24T05:09:32.767Z,30.43
2017-05-24T05:10:46.556Z,29.9
2017-05-24T05:12:00.251Z,28.46
2017-05-24T05:13:13.858Z,27.23
2017-05-24T05:14:27.740Z,27.47
2017-05-24T05:15:41.378Z,27.68
2017-05-24T05:16:54.978Z,27.18
2017-05-24T05:18:08.652Z,27.19
2017-05-24T05:19:22.647Z,27.88
2017-05-24T05:20:36.281Z,28.16
2017-05-24T05:21:50.089Z,28.62
2017-05-24T05:23:03.749Z,28.18
2017-05-24T05:24:17.429Z,28.09
2017-05-24T05:25:31.510Z,27.58
2017-05-24T05:26:46.504Z,27.3
2017-05-24T05:28:00.622Z,26.06
2017-05-24T05:29:14.307Z,25.29
2017-05-24T05:30:28.434Z,24.19
2017-05-24T05:31:42.357Z,23.42
2017-05-24T05:32:56.292Z,22.73
2017-05-24T05:34:09.899Z,22.56
2017-05-24T05:35:23.904Z,22.1
2017-05-24T05:36:37.534Z,21.68
2017-05-24T05:37:51.518Z,21.3
2017-05-24T05:39:05.502Z,20.95
2017-05-24T05:40:19.417Z,20.92
2017-05-24T05:41:33.051Z,20.96
2017-05-24T05:42:46.653Z,21
2017-05-24T05:44:00.380Z,21.08
2017-05-24T05:45:14.714Z,21.17
2017-05-24T05:46:34.922Z,20.86
2017-05-24T05:47:49.107Z,20.92
2017-05-24T05:49:03.044Z,20.86
2017-05-24T05:50:16.746Z,20.59
2017-05-24T05:51:30.611Z,20.56
2017-05-24T05:52:44.163Z,20.46
2017-05-24T05:53:57.795Z,20.36
2017-05-24T05:55:11.459Z,20.4
2017-05-24T05:56:25.169Z,20.7
2017-05-24T05:57:39.790Z,20.56
2017-05-24T05:58:53.427Z,20.52
2017-05-24T06:00:07.036Z,20.58
2017-05-24T06:01:22.049Z,20.68
2017-05-24T06:02:35.974Z,20.44
2017-05-24T06:03:50.418Z,20.48
2017-05-24T06:05:04.531Z,20.34
2017-05-24T06:06:18.532Z,20.49
2017-05-24T06:11:58.662Z,20
2017-05-24T06:13:12.350Z,19.72
2017-05-24T06:14:25.946Z,19.63
2017-05-24T06:15:39.639Z,19.39
2017-05-24T06:16:53.217Z,19.34
2017-05-24T06:18:07.538Z,19.15
2017-05-24T06:19:21.198Z,19.12
2017-05-24T06:20:34.905Z,19
2017-05-24T06:21:48.546Z,19.16
2017-05-24T06:23:02.114Z,19.16
2017-05-24T06:24:16.065Z,19.23
2017-05-24T06:25:29.774Z,19.11
2017-05-24T06:26:43.435Z,19.24
2017-05-24T06:27:57.187Z,19.27
2017-05-24T06:29:11.009Z,19.3
2017-05-24T06:30:24.979Z,19.38
2017-05-24T06:31:38.584Z,19.42
2017-05-24T06:32:52.582Z,19.78
2017-05-24T06:34:06.298Z,19.63
2017-05-24T06:35:20.566Z,19.52
2017-05-24T06:36:34.521Z,19.49
2017-05-24T06:37:48.078Z,19.52
2017-05-24T06:39:01.734Z,19.47
2017-05-24T06:40:15.690Z,19.32
2017-05-24T06:41:30.021Z,19.32
2017-05-24T06:42:44.323Z,19.3
2017-05-24T06:43:57.984Z,19.38
2017-05-24T06:45:11.978Z,19.34
2017-05-24T06:46:25.878Z,19.38
2017-05-24T06:47:39.538Z,19.38
2017-05-24T06:48:53.514Z,19.37
2017-05-24T06:50:07.169Z,19.42
2017-05-24T06:51:21.207Z,19.41
2017-05-24T06:52:35.050Z,19.37
2017-05-24T06:53:48.997Z,19.47
2017-05-24T06:55:03.301Z,19.55
2017-05-24T06:56:17.322Z,19.62
2017-05-24T06:57:31.056Z,19.6
2017-05-24T06:58:44.982Z,19.74
2017-05-24T06:59:58.614Z,19.71
2017-05-24T07:01:12.606Z,19.78
2017-05-24T07:02:26.286Z,19.89
2017-05-24T07:03:40.019Z,19.93
2017-05-24T07:04:54.065Z,19.97
2017-05-24T07:06:07.663Z,20.08
2017-05-24T07:07:21.917Z,20.04
2017-05-24T07:08:35.824Z,20.11
2017-05-24T07:09:49.501Z,20.17
2017-05-24T07:11:03.461Z,19.93
2017-05-24T07:12:17.074Z,20.1
2017-05-24T07:13:31.487Z,20.02
2017-05-24T07:14:45.189Z,20.1
2017-05-24T07:15:59.511Z,20.3
2017-05-24T07:17:13.219Z,20.39
2017-05-24T07:18:27.359Z,20.5
2017-05-24T07:19:41.621Z,20.39
2017-05-24T07:20:55.325Z,20.5
2017-05-24T07:22:08.933Z,20.39
2017-05-24T07:23:22.619Z,20.46
2017-05-24T07:24:36.334Z,20.58
2017-05-24T07:25:50.291Z,20.78
2017-05-24T07:27:04.221Z,21.04
2017-05-24T07:28:17.865Z,21.19
2017-05-24T07:29:31.654Z,21.32
2017-05-24T07:30:45.263Z,21.38
2017-05-24T07:31:58.938Z,21.47
2017-05-24T07:33:12.903Z,21.33
2017-05-24T07:34:26.576Z,20.93
2017-05-24T07:35:40.599Z,20.88
2017-05-24T07:36:54.317Z,20.89
2017-05-24T07:38:08.595Z,20.64
2017-05-24T07:39:22.347Z,20.6
2017-05-24T07:40:36.449Z,20.83
2017-05-24T07:41:50.156Z,20.83
2017-05-24T07:43:04.227Z,20.78
2017-05-24T07:47:59.573Z,20.77
2017-05-24T07:49:13.361Z,20.67
2017-05-24T07:50:27.223Z,20.71
2017-05-24T07:51:41.423Z,20.75
2017-05-24T07:53:01.807Z,20.89
2017-05-24T07:54:17.537Z,21.15
2017-05-24T07:55:31.684Z,21.14
2017-05-24T07:56:45.580Z,21.3
2017-05-24T07:57:59.414Z,21.22
2017-05-24T07:59:13.413Z,21.22
2017-05-24T08:00:27.596Z,21.1
2017-05-24T08:01:41.766Z,21.03
2017-05-24T08:02:55.662Z,20.86
2017-05-24T08:04:09.872Z,20.7
2017-05-24T08:05:24.772Z,20.71
2017-05-24T08:06:39.758Z,20.8
2017-05-24T08:07:53.550Z,20.88
2017-05-24T08:09:07.433Z,20.96
2017-05-24T08:10:21.239Z,21.23
2017-05-24T08:11:35.262Z,21.11
2017-05-24T08:12:49.407Z,21.13
2017-05-24T08:14:04.488Z,21.15
2017-05-24T08:15:18.687Z,21.05
2017-05-24T08:16:32.826Z,20.93
2017-05-24T08:17:46.991Z,20.96
2017-05-24T08:19:01.480Z,20.86
2017-05-24T08:20:15.974Z,20.92
2017-05-24T08:21:30.478Z,20.98
2017-05-24T08:22:44.363Z,20.93
2017-05-24T08:23:58.165Z,20.95
2017-05-24T08:25:12.297Z,20.88
2017-05-24T08:26:27.116Z,21.04
2017-05-24T08:27:40.873Z,21.07
2017-05-24T08:28:54.657Z,21.23
2017-05-24T08:30:08.503Z,20.95
2017-05-24T08:31:24.355Z,21.1
2017-05-24T08:32:38.871Z,21.38
2017-05-24T08:33:52.885Z,21.53
2017-05-24T08:35:06.772Z,21.75
2017-05-24T08:36:21.264Z,21.92
2017-05-24T08:37:36.074Z,22.14
2017-05-24T08:38:50.018Z,22.15
2017-05-24T08:40:03.859Z,22.08
2017-05-24T08:41:17.740Z,22
2017-05-24T08:42:31.628Z,21.92
2017-05-24T08:43:45.894Z,21.54
2017-05-24T08:44:59.625Z,21.44
2017-05-24T08:46:13.435Z,21.17
2017-05-24T08:47:27.327Z,21.26
2017-05-24T08:48:41.099Z,21.29
2017-05-24T08:49:55.277Z,21.28
2017-05-24T08:51:09.555Z,21.5
2017-05-24T08:52:24.269Z,21.81
2017-05-24T08:53:38.047Z,22.01
2017-05-24T08:54:52.054Z,22.33
2017-05-24T08:56:06.321Z,22.23
2017-05-24T08:57:20.313Z,22.37
2017-05-24T08:58:34.089Z,22.19
2017-05-24T08:59:47.956Z,21.91
2017-05-24T09:01:01.816Z,22.07
2017-05-24T09:02:15.932Z,22.15
2017-05-24T09:03:31.607Z,22
2017-05-24T09:04:45.730Z,22.06
2017-05-24T09:05:59.631Z,21.81
2017-05-24T09:07:13.572Z,21.75
2017-05-24T09:08:27.740Z,21.8
2017-05-24T09:09:41.909Z,21.97
2017-05-24T09:10:55.897Z,22.1
2017-05-24T09:12:09.992Z,21.94
2017-05-24T09:13:24.149Z,22
2017-05-24T09:14:40.007Z,21.94
2017-05-24T09:15:54.251Z,22.03
2017-05-24T09:17:07.980Z,22
2017-05-24T09:18:22.340Z,22.03
2017-05-24T09:19:36.596Z,22.1
2017-05-24T09:20:51.101Z,22.31
2017-05-24T09:22:05.078Z,22.19
2017-05-24T09:23:19.243Z,22.34
2017-05-24T09:24:33.002Z,22.15
2017-05-24T09:25:46.903Z,22.16
2017-05-24T09:27:01.382Z,21.8
2017-05-24T09:28:15.164Z,21.92
2017-05-24T09:29:29.419Z,22
2017-05-24T09:30:43.295Z,22.07
2017-05-24T09:31:57.240Z,22.19
2017-05-24T09:33:11.492Z,22.25
2017-05-24T09:34:26.990Z,22.28
2017-05-24T09:35:41.108Z,22.41
2017-05-24T09:36:54.981Z,22.43
2017-05-24T09:38:08.829Z,22.58
2017-05-24T09:39:23.129Z,22.65
2017-05-24T09:40:36.902Z,22.68
2017-05-24T09:41:52.058Z,22.62
2017-05-24T09:43:05.881Z,22.62
2017-05-24T09:44:20.328Z,22.78
2017-05-24T09:45:34.209Z,22.7
2017-05-24T09:46:48.291Z,22.7
2017-05-24T09:48:02.052Z,22.71
2017-05-24T09:49:16.471Z,22.86
2017-05-24T09:50:31.863Z,22.81
2017-05-24T09:51:46.205Z,22.95
2017-05-24T09:53:00.054Z,22.68
2017-05-24T09:54:14.489Z,22.4
2017-05-24T09:55:30.036Z,22.33
2017-05-24T09:56:43.771Z,22.43
2017-05-24T09:57:57.529Z,22.47
2017-05-24T09:59:11.836Z,22.52
2017-05-24T10:00:25.591Z,22.47
2017-05-24T10:01:39.380Z,22.62
2017-05-24T10:02:53.262Z,22.73
2017-05-24T10:04:07.355Z,22.83
2017-05-24T10:05:22.238Z,22.88
2017-05-24T10:06:36.020Z,22.83
2017-05-24T10:07:50.077Z,22.44
2017-05-24T10:09:04.162Z,22.47
2017-05-24T10:10:18.220Z,22.59
2017-05-24T10:11:32.014Z,22.7
2017-05-24T10:12:46.100Z,22.83
2017-05-24T10:13:59.884Z,22.71
2017-05-24T10:15:14.149Z,22.77
2017-05-24T10:16:28.559Z,22.8
2017-05-24T10:17:42.702Z,22.68
2017-05-24T10:18:57.236Z,22.92
2017-05-24T10:20:11.000Z,23.02
2017-05-24T10:21:24.794Z,22.81
2017-05-24T10:22:39.341Z,22.51
2017-05-24T10:23:53.955Z,22.47
2017-05-24T10:25:07.695Z,22.43
2017-05-24T10:26:21.681Z,22.36
2017-05-24T10:27:35.827Z,22.31
2017-05-24T10:28:50.048Z,22.31
2017-05-24T10:30:03.919Z,22.08
2017-05-24T10:31:18.837Z,21.88
2017-05-24T10:32:32.647Z,21.62
2017-05-24T10:33:46.767Z,21.37
2017-05-24T10:35:00.493Z,21.29
2017-05-24T10:36:14.556Z,21.17
2017-05-24T10:37:28.487Z,21.19
2017-05-24T10:38:42.673Z,21.08
2017-05-24T10:39:56.718Z,21.08
2017-05-24T10:41:10.515Z,21.1
2017-05-24T10:42:24.557Z,21.1
2017-05-24T10:43:38.562Z,21.04
2017-05-24T10:44:52.325Z,21.04
2017-05-24T10:46:06.086Z,21.03
2017-05-24T10:47:19.844Z,21.04
2017-05-24T10:48:33.724Z,21.01
2017-05-24T10:49:47.770Z,20.86
2017-05-24T10:51:01.943Z,21.04
2017-05-24T10:52:16.606Z,20.92
2017-05-24T10:53:30.698Z,21.13
2017-05-24T10:54:44.485Z,21.04
2017-05-24T10:55:58.216Z,21.04
2017-05-24T10:57:12.172Z,21.01
2017-05-24T10:58:25.915Z,21.13
2017-05-24T10:59:39.720Z,21.11
2017-05-24T11:00:53.806Z,21.2
2017-05-24T11:02:07.668Z,21.3
2017-05-24T11:03:21.766Z,21.54
2017-05-24T11:04:35.557Z,21.78
2017-05-24T11:05:49.320Z,21.75
2017-05-24T11:07:03.051Z,21.92
2017-05-24T11:08:16.764Z,22.07
2017-05-24T11:09:30.561Z,22.19
2017-05-24T11:10:44.709Z,22.34
2017-05-24T11:11:58.745Z,22.36
2017-05-24T11:13:12.506Z,22.36
2017-05-24T11:14:27.987Z,22.44
2017-05-24T11:15:42.185Z,22.56
2017-05-24T11:16:56.003Z,22.4
2017-05-24T11:18:09.719Z,22.3
2017-05-24T11:19:23.486Z,22.51
2017-05-24T11:20:37.386Z,22.53
2017-05-24T11:21:51.165Z,22.71
2017-05-24T11:23:05.221Z,23.04
2017-05-24T11:24:19.708Z,23.29
2017-05-24T11:25:33.450Z,23.18
2017-05-24T11:26:47.190Z,23.04
2017-05-24T11:28:01.395Z,22.95
2017-05-24T11:29:15.705Z,22.84
2017-05-24T11:30:30.018Z,22.8
2017-05-24T11:31:45.255Z,22.62
2017-05-24T11:32:59.730Z,22.49
2017-05-24T11:34:13.810Z,22.43
2017-05-24T11:35:27.890Z,22.18
2017-05-24T11:36:42.296Z,21.84
2017-05-24T11:37:56.406Z,21.58
2017-05-24T11:39:10.150Z,21.47
2017-05-24T11:40:23.960Z,21.4
2017-05-24T11:41:38.154Z,21.37
2017-05-24T11:42:52.376Z,21.3
2017-05-24T11:44:06.490Z,21.25
2017-05-24T11:45:21.004Z,21.15
2017-05-24T11:46:34.760Z,21.17
2017-05-24T11:47:49.094Z,21.14
2017-05-24T11:49:04.629Z,21.23
2017-05-24T11:50:18.434Z,21.07
2017-05-24T11:51:32.526Z,21.07
2017-05-24T11:52:46.280Z,21.23
2017-05-24T11:54:00.045Z,21.35
2017-05-24T11:55:14.468Z,21.51
2017-05-24T11:56:28.639Z,21.74
2017-05-24T11:57:42.743Z,21.99
2017-05-24T11:58:57.214Z,22.07
2017-05-24T12:00:11.599Z,22.28
2017-05-24T12:01:26.402Z,22.36
2017-05-24T12:02:40.188Z,22.36
2017-05-24T12:03:54.319Z,22.34
2017-05-24T12:05:08.123Z,22.37
2017-05-24T12:06:23.162Z,22.46
2017-05-24T12:07:39.253Z,22.38
2017-05-24T12:08:53.496Z,22.22
2017-05-24T12:10:07.680Z,22.23
2017-05-24T12:11:21.629Z,22.14
2017-05-24T12:12:39.109Z,22
2017-05-24T12:13:54.225Z,21.91
2017-05-24T12:15:09.255Z,21.8
2017-05-24T12:16:23.677Z,21.81
2017-05-24T12:17:37.795Z,21.88
2017-05-24T12:18:51.549Z,21.8
2017-05-24T12:20:05.402Z,21.78
2017-05-24T12:21:20.458Z,22.03
2017-05-24T12:22:34.711Z,21.8
2017-05-24T12:23:48.453Z,22
2017-05-24T12:25:02.220Z,22.07
2017-05-24T12:26:16.269Z,22.21
2017-05-24T12:27:31.142Z,22.22
2017-05-24T12:28:44.996Z,22.07
2017-05-24T12:29:59.729Z,22.21
2017-05-24T12:31:13.482Z,22.06
2017-05-24T12:32:27.987Z,22.19
2017-05-24T12:33:41.763Z,22.04
2017-05-24T12:34:56.223Z,21.84
2017-05-24T12:36:12.633Z,21.83
2017-05-24T12:37:26.442Z,21.69
2017-05-24T12:38:40.499Z,21.53
2017-05-24T12:39:54.386Z,21.58
2017-05-24T12:41:08.145Z,21.54
2017-05-24T12:42:21.968Z,21.47
2017-05-24T12:43:35.734Z,21.41
2017-05-24T12:44:49.867Z,21.37
2017-05-24T12:46:03.675Z,21.33
2017-05-24T12:47:17.473Z,21.32
2017-05-24T12:48:31.634Z,21.25
2017-05-24T12:49:45.441Z,21.19
2017-05-24T12:50:59.824Z,21.05
2017-05-24T12:52:13.551Z,21.07
2017-05-24T12:53:27.373Z,21.07
2017-05-24T12:54:41.126Z,20.9
2017-05-24T12:55:55.527Z,20.96
2017-05-24T12:57:09.558Z,20.95
2017-05-24T12:58:23.699Z,20.98
2017-05-24T12:59:37.419Z,21.04
2017-05-24T13:00:51.782Z,21.04
2017-05-24T13:02:05.562Z,21.07
2017-05-24T13:03:19.994Z,20.95
2017-05-24T13:04:34.132Z,21
2017-05-24T13:05:48.282Z,21.03
2017-05-24T13:07:02.074Z,20.89
2017-05-24T13:08:17.097Z,21
2017-05-24T13:09:32.406Z,20.92
2017-05-24T13:10:46.561Z,21.05
2017-05-24T13:12:00.661Z,21.04
2017-05-24T13:13:14.571Z,21.1
2017-05-24T13:14:28.696Z,21.07
2017-05-24T13:15:42.790Z,21.11
2017-05-24T13:16:56.658Z,21.1
2017-05-24T13:18:10.402Z,21.05
2017-05-24T13:19:24.279Z,21.01
2017-05-24T13:20:38.027Z,20.95
2017-05-24T13:21:52.738Z,21.11
2017-05-24T13:23:06.769Z,21.2
2017-05-24T13:24:21.056Z,21.14
2017-05-24T13:25:35.063Z,21.14
2017-05-24T13:26:49.151Z,21.22
2017-05-24T13:28:03.244Z,21.08
2017-05-24T13:29:17.414Z,21.13
2017-05-24T13:30:33.130Z,21.14
2017-05-24T13:31:47.051Z,21.17
2017-05-24T13:33:01.775Z,21.23
2017-05-24T13:34:16.208Z,21.29
2017-05-24T13:35:30.406Z,21.28
2017-05-24T13:36:44.447Z,21.32
2017-05-24T13:37:58.575Z,21.32
2017-05-24T13:39:12.314Z,21.33
2017-05-24T13:40:26.851Z,21.38
2017-05-24T13:41:40.651Z,21.44
2017-05-24T13:42:54.750Z,21.47
2017-05-24T13:44:08.510Z,21.56
2017-05-24T13:45:22.286Z,21.66
2017-05-24T13:46:36.772Z,21.75
2017-05-24T13:47:50.689Z,21.84
2017-05-24T13:49:05.116Z,21.91
2017-05-24T13:50:18.865Z,22
2017-05-24T13:51:32.771Z,21.99
2017-05-24T13:52:47.078Z,21.99
2017-05-24T13:54:00.843Z,22
2017-05-24T13:55:14.754Z,22.07
2017-05-24T13:56:29.056Z,22
2017-05-24T13:57:43.142Z,21.88
2017-05-24T13:58:57.250Z,21.77
2017-05-24T14:00:11.430Z,21.6
2017-05-24T14:01:25.230Z,21.54
2017-05-24T14:02:39.321Z,21.59
2017-05-24T14:03:54.070Z,21.56
2017-05-24T14:05:08.157Z,21.72
2017-05-24T14:06:21.920Z,21.65
2017-05-24T14:07:35.695Z,21.69
2017-05-24T14:08:50.191Z,21.68
2017-05-24T14:10:04.903Z,21.75
2017-05-24T14:11:19.284Z,21.96
2017-05-24T14:12:33.147Z,22.01
2017-05-24T14:13:47.325Z,22.03
2017-05-24T14:15:01.367Z,22.12
2017-05-24T14:16:15.465Z,22.1
2017-05-24T14:17:29.968Z,22.1
2017-05-24T14:18:43.762Z,22.1
2017-05-24T14:19:57.897Z,22.18
2017-05-24T14:21:11.898Z,22.01
2017-05-24T14:22:26.084Z,22.1
2017-05-24T14:23:40.447Z,22.07
2017-05-24T14:24:54.503Z,22.04
2017-05-24T14:26:08.254Z,21.99
2017-05-24T14:27:21.992Z,22.01
2017-05-24T14:28:37.519Z,22.06
2017-05-24T14:29:51.619Z,22.06
2017-05-24T14:31:05.376Z,22.25
2017-05-24T14:32:19.156Z,22.18
2017-05-24T14:33:33.326Z,22.21
2017-05-24T14:34:47.100Z,22.21
2017-05-24T14:36:01.472Z,22.34
2017-05-24T14:37:15.616Z,22.36
2017-05-24T14:38:29.509Z,22.22
2017-05-24T14:39:43.347Z,22.16
2017-05-24T14:41:01.987Z,22.18
2017-05-24T14:42:22.377Z,22.18
2017-05-24T14:43:37.326Z,22.06
2017-05-24T14:44:51.416Z,22.06
2017-05-24T14:46:05.252Z,22.03
2017-05-24T14:47:19.330Z,22.07
2017-05-24T14:48:33.491Z,22.1
2017-05-24T14:49:47.248Z,22.1
2017-05-24T14:51:01.092Z,21.99
2017-05-24T14:52:15.432Z,21.91
2017-05-24T14:53:30.798Z,21.91
2017-05-24T14:54:45.963Z,22.03
2017-05-24T14:56:00.303Z,22.01
2017-05-24T14:57:34.570Z,21.91
2017-05-24T14:58:48.722Z,21.83
2017-05-24T15:00:03.076Z,21.94
2017-05-24T15:01:17.195Z,21.89
2017-05-24T15:02:31.457Z,21.85
2017-05-24T15:03:46.019Z,21.84
2017-05-24T15:04:59.753Z,21.78
2017-05-24T15:06:13.853Z,21.69
2017-05-24T15:07:28.486Z,21.75
2017-05-24T15:08:43.473Z,21.77
2017-05-24T15:09:57.382Z,21.75
2017-05-24T15:11:12.637Z,21.91
2017-05-24T15:12:27.044Z,21.88
2017-05-24T15:13:41.088Z,21.96
2017-05-24T15:14:55.615Z,22.21
2017-05-24T15:16:09.365Z,22.31
2017-05-24T15:17:24.935Z,22.37
2017-05-24T15:18:39.336Z,22.34
2017-05-24T15:19:53.305Z,22.33
2017-05-24T15:21:07.061Z,22.23
2017-05-24T15:22:20.827Z,22.23
2017-05-24T15:23:34.556Z,22.22
2017-05-24T15:24:48.670Z,22.33
2017-05-24T15:26:02.772Z,22.26
2017-05-24T15:27:16.517Z,22.18
2017-05-24T15:28:31.310Z,22.15
2017-05-24T15:29:46.000Z,22.16
2017-05-24T15:31:01.137Z,22.06
2017-05-24T15:32:16.516Z,22
2017-05-24T15:33:35.242Z,22
2017-05-24T15:34:50.446Z,21.83
2017-05-24T15:36:05.094Z,21.65
2017-05-24T15:37:20.043Z,21.62
2017-05-24T15:38:34.900Z,21.66
2017-05-24T15:39:51.298Z,21.54
2017-05-24T15:41:08.910Z,21.62
2017-05-24T15:42:24.618Z,21.65
2017-05-24T15:43:39.910Z,21.62
2017-05-24T15:44:54.094Z,21.65
2017-05-24T15:46:09.252Z,21.77
2017-05-24T15:47:23.025Z,21.75
2017-05-24T15:48:37.673Z,21.81
2017-05-24T15:49:51.942Z,21.84
2017-05-24T15:51:06.903Z,21.81
2017-05-24T15:52:21.019Z,21.65
2017-05-24T15:53:35.131Z,21.6
2017-05-24T15:54:49.014Z,21.54
2017-05-24T15:56:04.717Z,21.58
2017-05-24T15:57:20.012Z,21.51
2017-05-24T15:58:35.198Z,21.43
2017-05-24T15:59:49.058Z,21.4
2017-05-24T16:01:03.149Z,21.4
2017-05-24T16:02:18.012Z,21.33
2017-05-24T16:03:32.093Z,21.29
2017-05-24T16:04:45.947Z,21.23
2017-05-24T16:06:00.414Z,21.26
2017-05-24T16:07:14.349Z,21.26
2017-05-24T16:08:29.723Z,21.28